Time;durP1;ratioP1;P1;durP2;ratioP2;P2;SDS_P1;SDS_P2;PMS_P1;PMS_P2;Temp;Humidity;BMP_temperature;BMP_pressure;BME280_temperature;BME280_humidity;BME280_pressure;Samples;Min_cycle;Max_cycle;Signal;HPM_P1;HPM_P2
2021/06/11 00:00:47;;;;;;;2.60;2.10;;;;;;;;;;5028407;28;20117;-60
2021/06/11 00:03:13;;;;;;;2.83;2.30;;;;;;;;;;5050559;28;20132;-59
2021/06/11 00:05:39;;;;;;;2.55;2.33;;;;;;;;;;5036884;28;20064;-60
2021/06/11 00:08:04;;;;;;;2.55;2.28;;;;;;;;;;5070281;28;20043;-60
2021/06/11 00:10:30;;;;;;;2.83;2.20;;;;;;;;;;5052121;28;20035;-60
2021/06/11 00:12:56;;;;;;;2.45;2.00;;;;;;;;;;5070275;28;20037;-60
2021/06/11 00:15:21;;;;;;;2.67;2.22;;;;;;;;;;5052915;28;20045;-60
2021/06/11 00:17:46;;;;;;;2.45;2.20;;;;;;;;;;5070206;28;20029;-60
2021/06/11 00:20:12;;;;;;;2.85;2.30;;;;;;;;;;5070131;28;20906;-60
2021/06/11 00:22:38;;;;;;;4.28;2.63;;;;;;;;;;5051219;28;20147;-60
2021/06/11 00:25:07;;;;;;;2.92;2.47;;;;;;;;;;5069327;28;20030;-60
2021/06/11 00:27:33;;;;;;;3.25;2.67;;;;;;;;;;5071701;28;20033;-60
2021/06/11 00:29:58;;;;;;;2.95;2.65;;;;;;;;;;5044464;28;20029;-60
2021/06/11 00:32:24;;;;;;;2.65;2.45;;;;;;;;;;5035238;28;20044;-60
2021/06/11 00:34:49;;;;;;;3.47;2.30;;;;;;;;;;5051374;28;20072;-60
2021/06/11 00:37:15;;;;;;;2.88;2.45;;;;;;;;;;5051999;28;20103;-59
2021/06/11 00:39:40;;;;;;;3.53;2.53;;;;;;;;;;5070623;28;20406;-60
2021/06/11 00:42:06;;;;;;;3.30;2.55;;;;;;;;;;5070283;28;20037;-60
2021/06/11 00:44:32;;;;;;;3.47;2.30;;;;;;;;;;5073081;28;20489;-60
2021/06/11 00:46:57;;;;;;;3.10;2.80;;;;;;;;;;5074926;28;24499;-60
2021/06/11 00:49:23;;;;;;;4.47;2.30;;;;;;;;;;5073514;28;20094;-60
2021/06/11 00:51:48;;;;;;;3.95;2.60;;;;;;;;;;5057805;28;20068;-60
2021/06/11 00:54:14;;;;;;;2.83;2.35;;;;;;;;;;5058279;28;20401;-60
2021/06/11 00:56:40;;;;;;;2.88;2.60;;;;;;;;;;5074276;28;20801;-60
2021/06/11 00:59:05;;;;;;;4.25;2.80;;;;;;;;;;5073959;28;20117;-60
2021/06/11 01:01:30;;;;;;;5.45;3.03;;;;;;;;;;5056162;28;20032;-61
2021/06/11 01:03:56;;;;;;;2.50;2.30;;;;;;;;;;5058167;28;20041;-60
2021/06/11 01:06:21;;;;;;;3.45;2.55;;;;;;;;;;5072616;28;20497;-60
2021/06/11 01:08:47;;;;;;;3.28;2.63;;;;;;;;;;5072838;28;20047;-60
2021/06/11 01:11:13;;;;;;;2.90;2.65;;;;;;;;;;5054815;28;20075;-60
2021/06/11 01:13:39;;;;;;;3.22;2.50;;;;;;;;;;5022966;28;20041;-60
2021/06/11 01:16:05;;;;;;;3.03;2.72;;;;;;;;;;5073493;28;20559;-60
2021/06/11 01:18:30;;;;;;;3.95;2.72;;;;;;;;;;5053715;28;20033;-60
2021/06/11 01:20:55;;;;;;;4.10;2.58;;;;;;;;;;5073543;28;20044;-60
2021/06/11 01:24:00;;;;;;;3.60;2.80;;;;;;;;;;5040749;28;20307;-61
2021/06/11 01:26:31;;;;;;;2.88;2.60;;;;;;;;;;4981434;28;20039;-60
2021/06/11 01:29:02;;;;;;;3.05;2.60;;;;;;;;;;5040813;28;20053;-60
2021/06/11 01:31:31;;;;;;;2.87;2.57;;;;;;;;;;5072302;28;20037;-61
2021/06/11 01:34:02;;;;;;;6.63;3.17;;;;;;;;;;5041522;28;20033;-60
2021/06/11 01:36:54;;;;;;;3.45;2.83;;;;;;;;;;5057443;28;20036;-60
2021/06/11 01:39:20;;;;;;;4.47;2.85;;;;;;;;;;5054227;28;20162;-60
2021/06/11 01:41:46;;;;;;;3.15;2.65;;;;;;;;;;5056340;28;20109;-60
2021/06/11 01:44:11;;;;;;;2.85;2.53;;;;;;;;;;5052009;28;20521;-60
2021/06/11 01:46:37;;;;;;;3.10;2.70;;;;;;;;;;5054402;28;20083;-59
2021/06/11 01:49:02;;;;;;;3.50;2.67;;;;;;;;;;5038920;28;20493;-60
2021/06/11 01:51:28;;;;;;;2.63;2.40;;;;;;;;;;5037901;28;20037;-61
2021/06/11 01:53:54;;;;;;;3.70;2.72;;;;;;;;;;5029582;28;20024;-60
2021/06/11 01:56:19;;;;;;;3.10;2.78;;;;;;;;;;5072277;28;20037;-60
2021/06/11 01:58:45;;;;;;;3.53;3.05;;;;;;;;;;5054672;28;20028;-59
2021/06/11 02:01:12;;;;;;;3.92;3.08;;;;;;;;;;5039516;28;20052;-60
2021/06/11 02:03:38;;;;;;;2.88;2.58;;;;;;;;;;5038203;28;20025;-60
2021/06/11 02:06:04;;;;;;;3.10;2.80;;;;;;;;;;5057444;28;20475;-60
2021/06/11 02:08:30;;;;;;;3.33;2.80;;;;;;;;;;5055849;28;20397;-60
2021/06/11 02:10:56;;;;;;;3.95;2.67;;;;;;;;;;5055776;28;20033;-60
2021/06/11 02:13:22;;;;;;;3.47;2.60;;;;;;;;;;5063600;28;20033;-60
2021/06/11 02:15:47;;;;;;;3.38;2.63;;;;;;;;;;5054486;28;20544;-60
2021/06/11 02:18:13;;;;;;;2.50;2.30;;;;;;;;;;5053862;28;20102;-60
2021/06/11 02:20:38;;;;;;;3.17;2.72;;;;;;;;;;5022456;28;20053;-60
2021/06/11 02:23:04;;;;;;;3.70;2.70;;;;;;;;;;5052510;28;20025;-60
2021/06/11 02:25:29;;;;;;;3.60;2.75;;;;;;;;;;5046289;28;20033;-61
2021/06/11 02:27:56;;;;;;;3.83;2.63;;;;;;;;;;5057923;28;20041;-60
2021/06/11 02:30:21;;;;;;;4.10;2.90;;;;;;;;;;5070740;28;20029;-60
2021/06/11 02:32:47;;;;;;;3.03;2.55;;;;;;;;;;5040931;28;20604;-61
2021/06/11 02:35:13;;;;;;;3.17;2.85;;;;;;;;;;5036555;28;20089;-60
2021/06/11 02:37:39;;;;;;;3.47;2.97;;;;;;;;;;5054102;28;20515;-60
2021/06/11 02:40:05;;;;;;;3.88;3.03;;;;;;;;;;5054199;28;20083;-60
2021/06/11 02:42:31;;;;;;;3.30;3.00;;;;;;;;;;5072230;28;20053;-60
2021/06/11 02:45:00;;;;;;;3.10;2.80;;;;;;;;;;5054970;28;20037;-60
2021/06/11 02:47:43;;;;;;;3.60;2.90;;;;;;;;;;5031605;28;20591;-60
2021/06/11 02:50:13;;;;;;;3.60;2.78;;;;;;;;;;5042360;28;20029;-60
2021/06/11 02:52:41;;;;;;;3.28;2.88;;;;;;;;;;5069547;28;20067;-60
2021/06/11 02:55:07;;;;;;;3.30;3.00;;;;;;;;;;5056058;28;20512;-60
2021/06/11 02:57:41;;;;;;;3.50;2.88;;;;;;;;;;5037970;28;20082;-60
2021/06/11 03:00:08;;;;;;;3.58;2.47;;;;;;;;;;5059757;28;20036;-60
2021/06/11 03:02:44;;;;;;;3.00;2.70;;;;;;;;;;5069930;28;20075;-60
2021/06/11 03:05:09;;;;;;;3.20;2.90;;;;;;;;;;5061720;28;20076;-61
2021/06/11 03:07:36;;;;;;;2.97;2.60;;;;;;;;;;5028193;28;21271;-60
2021/06/11 03:10:03;;;;;;;2.78;2.58;;;;;;;;;;5037571;28;20028;-60
2021/06/11 03:12:29;;;;;;;3.83;2.90;;;;;;;;;;5054371;28;20111;-60
2021/06/11 03:14:54;;;;;;;3.83;3.03;;;;;;;;;;5036093;28;20573;-60
2021/06/11 03:17:21;;;;;;;3.15;2.80;;;;;;;;;;5035787;28;20861;-60
2021/06/11 03:19:50;;;;;;;3.40;3.10;;;;;;;;;;5053198;28;20025;-61
2021/06/11 03:22:19;;;;;;;3.97;3.13;;;;;;;;;;5054011;28;20036;-60
2021/06/11 03:24:58;;;;;;;3.28;2.83;;;;;;;;;;5073811;28;20033;-60
2021/06/11 03:27:30;;;;;;;3.40;3.10;;;;;;;;;;5039679;28;20519;-60
2021/06/11 03:30:00;;;;;;;3.47;3.17;;;;;;;;;;5055686;28;20064;-60
2021/06/11 03:32:31;;;;;;;3.45;2.92;;;;;;;;;;5062346;28;20033;-60
2021/06/11 03:35:02;;;;;;;3.85;3.13;;;;;;;;;;5022823;28;20032;-60
2021/06/11 03:37:28;;;;;;;4.18;3.10;;;;;;;;;;5051040;28;20491;-61
2021/06/11 03:39:55;;;;;;;4.07;2.92;;;;;;;;;;5032446;28;20037;-60
2021/06/11 03:42:21;;;;;;;3.70;3.10;;;;;;;;;;5038297;28;20035;-61
2021/06/11 03:44:50;;;;;;;4.35;2.80;;;;;;;;;;5069628;28;20036;-60
2021/06/11 03:47:18;;;;;;;3.40;2.92;;;;;;;;;;5031962;28;20048;-60
2021/06/11 03:49:43;;;;;;;3.75;3.08;;;;;;;;;;5039169;28;20860;-61
2021/06/11 03:52:10;;;;;;;3.45;2.83;;;;;;;;;;5053300;28;20037;-61
2021/06/11 03:54:35;;;;;;;3.65;2.92;;;;;;;;;;5035853;28;20064;-60
2021/06/11 03:57:01;;;;;;;3.22;2.92;;;;;;;;;;5034385;28;20037;-61
2021/06/11 03:59:26;;;;;;;3.38;2.95;;;;;;;;;;5036177;28;20056;-61
2021/06/11 04:01:52;;;;;;;4.75;3.10;;;;;;;;;;5044800;28;20062;-61
2021/06/11 04:04:17;;;;;;;3.38;3.05;;;;;;;;;;5028802;28;20492;-61
2021/06/11 04:07:14;;;;;;;3.10;2.80;;;;;;;;;;5070587;28;20033;-60
2021/06/11 04:09:47;;;;;;;3.83;3.38;;;;;;;;;;5043127;28;20041;-61
2021/06/11 04:12:19;;;;;;;3.67;2.88;;;;;;;;;;5052344;28;20033;-61
2021/06/11 04:14:47;;;;;;;5.22;2.97;;;;;;;;;;5051435;28;20033;-61
2021/06/11 04:17:15;;;;;;;3.22;2.92;;;;;;;;;;5039152;28;20140;-60
2021/06/11 04:19:45;;;;;;;6.30;3.25;;;;;;;;;;5038011;28;20045;-61
2021/06/11 04:22:14;;;;;;;4.18;3.20;;;;;;;;;;5032117;28;20841;-60
2021/06/11 04:24:42;;;;;;;3.72;2.83;;;;;;;;;;5040794;28;20909;-61
2021/06/11 04:27:08;;;;;;;3.35;2.90;;;;;;;;;;5037879;28;20036;-60
2021/06/11 04:29:33;;;;;;;4.15;3.15;;;;;;;;;;5038545;28;20025;-61
2021/06/11 04:31:59;;;;;;;3.50;3.20;;;;;;;;;;5054664;28;20032;-61
2021/06/11 04:34:25;;;;;;;3.65;3.10;;;;;;;;;;5069512;28;20515;-60
2021/06/11 04:36:50;;;;;;;3.97;2.97;;;;;;;;;;5058667;28;20036;-61
2021/06/11 04:39:16;;;;;;;4.97;3.08;;;;;;;;;;5039290;28;20606;-60
2021/06/11 04:41:41;;;;;;;4.75;3.05;;;;;;;;;;5073188;28;20588;-60
2021/06/11 04:44:07;;;;;;;3.58;3.10;;;;;;;;;;5072904;28;20124;-60
2021/06/11 04:46:33;;;;;;;3.40;2.90;;;;;;;;;;5055486;28;20040;-61
2021/06/11 04:48:58;;;;;;;3.92;3.20;;;;;;;;;;5038246;28;20128;-60
2021/06/11 04:51:24;;;;;;;3.30;2.78;;;;;;;;;;5063391;28;20038;-60
2021/06/11 04:53:49;;;;;;;3.33;2.90;;;;;;;;;;5038980;28;20642;-61
2021/06/11 04:56:15;;;;;;;4.15;2.95;;;;;;;;;;5074223;28;20029;-61
2021/06/11 04:58:41;;;;;;;4.45;2.92;;;;;;;;;;5073108;28;20029;-60
2021/06/11 05:01:07;;;;;;;3.58;3.08;;;;;;;;;;5072859;28;20071;-61
2021/06/11 05:03:33;;;;;;;4.03;3.00;;;;;;;;;;5056292;28;20037;-61
2021/06/11 05:05:59;;;;;;;3.28;2.95;;;;;;;;;;5073254;28;20052;-61
2021/06/11 05:08:25;;;;;;;3.75;3.35;;;;;;;;;;5055600;28;20036;-60
2021/06/11 05:10:50;;;;;;;4.10;3.63;;;;;;;;;;5073069;28;20083;-61
2021/06/11 05:13:16;;;;;;;4.60;3.70;;;;;;;;;;5072079;28;20091;-61
2021/06/11 05:15:41;;;;;;;4.18;3.78;;;;;;;;;;5055207;28;20033;-61
2021/06/11 05:18:07;;;;;;;5.97;3.58;;;;;;;;;;5059077;28;20041;-61
2021/06/11 05:20:33;;;;;;;4.13;3.50;;;;;;;;;;5038849;28;20055;-61
2021/06/11 05:22:58;;;;;;;7.47;3.58;;;;;;;;;;5040290;28;20028;-60
2021/06/11 05:25:24;;;;;;;4.72;3.63;;;;;;;;;;5073874;28;20098;-61
2021/06/11 05:27:50;;;;;;;4.80;3.85;;;;;;;;;;5072377;28;20040;-61
2021/06/11 05:30:17;;;;;;;4.72;3.90;;;;;;;;;;5054924;28;20207;-61
2021/06/11 05:32:43;;;;;;;5.22;3.78;;;;;;;;;;5071501;28;20033;-61
2021/06/11 05:35:09;;;;;;;6.10;4.18;;;;;;;;;;5072643;28;21488;-60
2021/06/11 05:37:35;;;;;;;6.00;3.88;;;;;;;;;;5056023;28;20024;-61
2021/06/11 05:40:00;;;;;;;6.75;4.30;;;;;;;;;;5073690;28;20097;-60
2021/06/11 05:42:25;;;;;;;6.07;4.88;;;;;;;;;;5072091;28;20039;-61
2021/06/11 05:44:51;;;;;;;5.78;4.40;;;;;;;;;;5072911;28;20114;-61
2021/06/11 05:47:16;;;;;;;5.28;4.45;;;;;;;;;;5073197;28;20056;-59
2021/06/11 05:49:42;;;;;;;3.20;2.65;;;;;;;;;;5073587;28;20029;-60
2021/06/11 05:52:07;;;;;;;2.63;2.13;;;;;;;;;;5072411;28;20016;-60
2021/06/11 05:54:33;;;;;;;4.15;3.25;;;;;;;;;;5053212;28;20401;-61
2021/06/11 05:56:59;;;;;;;4.65;3.10;;;;;;;;;;5071672;28;20046;-61
2021/06/11 05:59:24;;;;;;;4.85;3.38;;;;;;;;;;5053836;28;20061;-60
2021/06/11 06:01:50;;;;;;;5.28;3.58;;;;;;;;;;5068960;28;20013;-61
2021/06/11 06:04:15;;;;;;;4.80;4.03;;;;;;;;;;5074069;28;20068;-61
2021/06/11 06:06:40;;;;;;;4.55;3.63;;;;;;;;;;5063515;28;20443;-61
2021/06/11 06:09:06;;;;;;;4.20;2.97;;;;;;;;;;5063544;28;20037;-60
2021/06/11 06:11:31;;;;;;;4.32;3.58;;;;;;;;;;5071455;28;20028;-61
2021/06/11 06:13:57;;;;;;;4.93;4.00;;;;;;;;;;5057091;28;20037;-61
2021/06/11 06:16:22;;;;;;;3.90;3.22;;;;;;;;;;5072327;28;20024;-61
2021/06/11 06:18:48;;;;;;;4.80;3.30;;;;;;;;;;5052997;28;20051;-61
2021/06/11 06:21:13;;;;;;;5.28;3.50;;;;;;;;;;5053077;28;20524;-61
2021/06/11 06:23:39;;;;;;;6.88;5.75;;;;;;;;;;5071502;28;20032;-60
2021/06/11 06:26:04;;;;;;;6.25;4.47;;;;;;;;;;5052738;28;20782;-60
2021/06/11 06:28:30;;;;;;;5.43;4.55;;;;;;;;;;5070291;28;20028;-61
2021/06/11 06:30:55;;;;;;;5.32;4.55;;;;;;;;;;5070897;28;20044;-61
2021/06/11 06:33:21;;;;;;;5.55;4.43;;;;;;;;;;5072745;28;20685;-61
2021/06/11 06:35:46;;;;;;;6.35;5.13;;;;;;;;;;5072838;28;20025;-61
2021/06/11 06:38:13;;;;;;;6.88;4.90;;;;;;;;;;5071545;28;20043;-61
2021/06/11 06:40:44;;;;;;;6.97;5.03;;;;;;;;;;5069576;28;20050;-61
2021/06/11 06:43:10;;;;;;;6.95;5.40;;;;;;;;;;5054489;28;20583;-63
2021/06/11 06:45:36;;;;;;;5.78;4.18;;;;;;;;;;5071178;28;20032;-60
2021/06/11 06:48:02;;;;;;;5.65;4.70;;;;;;;;;;5072649;28;20036;-61
2021/06/11 06:50:27;;;;;;;7.88;5.70;;;;;;;;;;5054034;28;20021;-61
2021/06/11 06:52:55;;;;;;;5.40;4.18;;;;;;;;;;5070909;28;20041;-61
2021/06/11 06:55:20;;;;;;;6.97;5.45;;;;;;;;;;5038166;28;20035;-60
2021/06/11 06:57:46;;;;;;;6.93;5.50;;;;;;;;;;5072266;28;20527;-60
2021/06/11 07:00:12;;;;;;;7.00;5.13;;;;;;;;;;5071621;28;20044;-61
2021/06/11 07:02:37;;;;;;;7.55;5.63;;;;;;;;;;5071269;28;20048;-61
2021/06/11 07:05:03;;;;;;;6.80;5.47;;;;;;;;;;5062327;28;20047;-61
2021/06/11 07:07:29;;;;;;;8.57;5.63;;;;;;;;;;5036406;28;20029;-61
2021/06/11 07:09:54;;;;;;;7.88;5.45;;;;;;;;;;5070279;28;20369;-62
2021/06/11 07:12:20;;;;;;;6.70;5.45;;;;;;;;;;5054236;28;20831;-60
2021/06/11 07:14:46;;;;;;;7.35;5.82;;;;;;;;;;5072431;28;20046;-60
2021/06/11 07:17:11;;;;;;;6.65;5.45;;;;;;;;;;5050580;28;20041;-60
2021/06/11 07:19:37;;;;;;;7.80;5.63;;;;;;;;;;5018964;28;20180;-60
2021/06/11 07:22:06;;;;;;;7.88;5.75;;;;;;;;;;5051605;28;20037;-61
2021/06/11 07:24:33;;;;;;;6.90;5.35;;;;;;;;;;5067167;28;20485;-61
2021/06/11 07:26:59;;;;;;;7.07;5.80;;;;;;;;;;5061072;28;20028;-61
2021/06/11 07:29:24;;;;;;;7.82;5.85;;;;;;;;;;5056181;28;20035;-60
2021/06/11 07:31:50;;;;;;;7.85;6.13;;;;;;;;;;5055012;28;20045;-60
2021/06/11 07:34:15;;;;;;;7.97;5.65;;;;;;;;;;5071496;28;20039;-61
2021/06/11 07:36:40;;;;;;;6.65;5.57;;;;;;;;;;5070558;28;20028;-61
2021/06/11 07:39:06;;;;;;;8.70;6.38;;;;;;;;;;5068881;28;20049;-61
2021/06/11 07:41:31;;;;;;;7.18;5.82;;;;;;;;;;5052133;28;20033;-60
2021/06/11 07:43:57;;;;;;;7.25;5.65;;;;;;;;;;5071068;28;20037;-60
2021/06/11 07:46:22;;;;;;;7.07;5.72;;;;;;;;;;5069948;28;20033;-60
2021/06/11 07:48:49;;;;;;;7.35;5.90;;;;;;;;;;5069487;28;20446;-60
2021/06/11 07:51:14;;;;;;;7.10;5.68;;;;;;;;;;5069779;28;20033;-60
2021/06/11 07:53:41;;;;;;;7.22;5.72;;;;;;;;;;5069483;28;20025;-61
2021/06/11 07:56:07;;;;;;;7.28;6.00;;;;;;;;;;5051648;28;20050;-61
2021/06/11 07:58:33;;;;;;;8.43;6.10;;;;;;;;;;5070514;28;20029;-60
2021/06/11 08:00:58;;;;;;;8.13;5.57;;;;;;;;;;5070221;28;20045;-61
2021/06/11 08:03:24;;;;;;;7.22;5.32;;;;;;;;;;5070838;28;20033;-60
2021/06/11 08:05:49;;;;;;;8.25;5.82;;;;;;;;;;5071749;28;20037;-60
2021/06/11 08:08:15;;;;;;;7.05;5.57;;;;;;;;;;5072114;28;20037;-61
2021/06/11 08:10:40;;;;;;;7.47;5.43;;;;;;;;;;5070218;28;20436;-60
2021/06/11 08:13:06;;;;;;;8.18;6.03;;;;;;;;;;5055406;28;20041;-61
2021/06/11 08:15:31;;;;;;;7.28;5.40;;;;;;;;;;5052728;28;20033;-60
2021/06/11 08:17:57;;;;;;;8.88;6.60;;;;;;;;;;5036507;28;20402;-61
2021/06/11 08:20:23;;;;;;;7.07;5.70;;;;;;;;;;5040788;28;20124;-60
2021/06/11 08:22:48;;;;;;;7.22;5.18;;;;;;;;;;5069956;28;20075;-60
2021/06/11 08:25:14;;;;;;;7.57;6.00;;;;;;;;;;5071565;28;20032;-61
2021/06/11 08:27:39;;;;;;;7.93;5.95;;;;;;;;;;5035702;28;20043;-61
2021/06/11 08:30:11;;;;;;;8.77;6.13;;;;;;;;;;5051479;28;20955;-61
2021/06/11 08:32:37;;;;;;;8.43;5.95;;;;;;;;;;5070723;28;20108;-60
2021/06/11 08:35:04;;;;;;;8.15;5.93;;;;;;;;;;5068424;28;20045;-60
2021/06/11 08:37:29;;;;;;;7.07;5.22;;;;;;;;;;5055462;28;20505;-61
2021/06/11 08:39:56;;;;;;;6.80;5.22;;;;;;;;;;5052886;28;20056;-60
2021/06/11 08:42:31;;;;;;;7.60;6.07;;;;;;;;;;5070487;28;20060;-61
2021/06/11 08:45:01;;;;;;;7.35;5.80;;;;;;;;;;5036917;28;20068;-60
2021/06/11 08:47:27;;;;;;;8.25;6.25;;;;;;;;;;5070007;28;20063;-60
2021/06/11 08:49:53;;;;;;;8.60;6.18;;;;;;;;;;5052288;28;20037;-61
2021/06/11 08:52:19;;;;;;;7.90;5.80;;;;;;;;;;5068918;28;20921;-60
2021/06/11 08:54:44;;;;;;;8.18;6.10;;;;;;;;;;5068404;28;20059;-61
2021/06/11 08:57:11;;;;;;;7.32;5.88;;;;;;;;;;5069379;28;20041;-61
2021/06/11 08:59:37;;;;;;;8.45;6.20;;;;;;;;;;5050492;28;20037;-61
2021/06/11 09:02:03;;;;;;;8.32;6.30;;;;;;;;;;5069297;28;20037;-60
2021/06/11 09:04:45;;;;;;;7.97;6.28;;;;;;;;;;5070569;28;20033;-61
2021/06/11 09:07:37;;;;;;;7.55;5.68;;;;;;;;;;5047432;28;20029;-60
2021/06/11 09:10:05;;;;;;;8.05;5.20;;;;;;;;;;5069145;28;20188;-60
2021/06/11 09:12:33;;;;;;;8.07;5.80;;;;;;;;;;5071678;28;20195;-60
2021/06/11 09:15:04;;;;;;;8.15;6.28;;;;;;;;;;5070928;28;20040;-61
2021/06/11 09:17:39;;;;;;;8.33;5.80;;;;;;;;;;5053228;28;20037;-60
2021/06/11 09:20:18;;;;;;;8.43;6.00;;;;;;;;;;5072366;28;20256;-61
2021/06/11 09:22:54;;;;;;;7.82;5.93;;;;;;;;;;5052757;28;20041;-61
2021/06/11 09:25:35;;;;;;;9.20;6.35;;;;;;;;;;5054724;28;20571;-60
2021/06/11 09:28:06;;;;;;;8.07;5.63;;;;;;;;;;5053355;28;20029;-60
2021/06/11 09:30:52;;;;;;;8.70;5.88;;;;;;;;;;5072042;28;20033;-60
2021/06/11 09:33:19;;;;;;;7.95;5.35;;;;;;;;;;5054613;28;20036;-61
2021/06/11 09:35:50;;;;;;;7.60;5.45;;;;;;;;;;5057348;28;20117;-60
2021/06/11 09:38:23;;;;;;;7.97;5.18;;;;;;;;;;5046034;28;20033;-62
2021/06/11 09:40:58;;;;;;;8.65;6.10;;;;;;;;;;5052472;28;20044;-62
2021/06/11 09:43:25;;;;;;;7.47;5.22;;;;;;;;;;5072870;28;20021;-61
2021/06/11 09:46:04;;;;;;;7.13;4.97;;;;;;;;;;5071375;28;20091;-61
2021/06/11 09:48:38;;;;;;;7.70;5.40;;;;;;;;;;5048789;28;20124;-61
2021/06/11 09:51:22;;;;;;;8.27;5.40;;;;;;;;;;5009641;28;20033;-61
2021/06/11 09:53:47;;;;;;;7.80;5.65;;;;;;;;;;5032151;28;20162;-60
2021/06/11 09:56:22;;;;;;;7.75;5.65;;;;;;;;;;5033321;28;20033;-60
2021/06/11 09:58:48;;;;;;;7.35;4.97;;;;;;;;;;5050980;28;20038;-61
2021/06/11 10:01:14;;;;;;;6.97;4.90;;;;;;;;;;5052540;28;20033;-61
2021/06/11 10:03:42;;;;;;;8.45;5.68;;;;;;;;;;5019630;28;20038;-61
2021/06/11 10:06:09;;;;;;;7.25;4.90;;;;;;;;;;5052343;28;20032;-61
2021/06/11 10:08:35;;;;;;;7.00;5.13;;;;;;;;;;5031815;28;20037;-61
2021/06/11 10:11:02;;;;;;;7.85;5.25;;;;;;;;;;5032595;28;20114;-61
2021/06/11 10:13:27;;;;;;;6.70;4.75;;;;;;;;;;5031940;28;20112;-61
2021/06/11 10:15:54;;;;;;;8.40;5.35;;;;;;;;;;5032301;28;20037;-62
2021/06/11 10:18:20;;;;;;;8.25;5.00;;;;;;;;;;5067348;28;20063;-60
2021/06/11 10:20:46;;;;;;;7.22;5.00;;;;;;;;;;5051637;28;20112;-61
2021/06/11 10:23:13;;;;;;;7.43;5.00;;;;;;;;;;5048777;28;20951;-61
2021/06/11 10:25:43;;;;;;;7.65;4.65;;;;;;;;;;5049655;28;20040;-61
2021/06/11 10:28:11;;;;;;;7.63;5.38;;;;;;;;;;5051349;28;20044;-62
2021/06/11 10:30:36;;;;;;;8.65;6.07;;;;;;;;;;5031958;28;20494;-61
2021/06/11 10:33:02;;;;;;;7.93;5.90;;;;;;;;;;5049565;28;20041;-61
2021/06/11 10:35:47;;;;;;;7.90;5.40;;;;;;;;;;5034216;28;20068;-61
2021/06/11 10:38:32;;;;;;;7.18;5.55;;;;;;;;;;5037006;28;20038;-63
2021/06/11 10:40:59;;;;;;;7.50;5.35;;;;;;;;;;5050528;28;20128;-63
2021/06/11 10:43:29;;;;;;;9.93;5.75;;;;;;;;;;5034429;28;20064;-62
2021/06/11 10:45:58;;;;;;;7.75;4.63;;;;;;;;;;5033153;28;20033;-61
2021/06/11 10:48:24;;;;;;;7.50;5.25;;;;;;;;;;5050672;28;20037;-62
2021/06/11 10:50:50;;;;;;;7.50;4.78;;;;;;;;;;5033972;28;20108;-60
2021/06/11 10:53:42;;;;;;;7.32;5.30;;;;;;;;;;5052479;28;21010;-61
2021/06/11 10:56:14;;;;;;;7.03;5.05;;;;;;;;;;5063321;28;20143;-62
2021/06/11 10:58:44;;;;;;;7.80;5.57;;;;;;;;;;5051028;28;20508;-63
2021/06/11 11:01:29;;;;;;;7.53;5.20;;;;;;;;;;5065183;28;20080;-63
2021/06/11 11:03:56;;;;;;;6.28;4.50;;;;;;;;;;5039857;28;20082;-61
2021/06/11 11:06:26;;;;;;;6.43;3.97;;;;;;;;;;5035509;28;20076;-62
2021/06/11 11:08:53;;;;;;;5.32;3.40;;;;;;;;;;5052472;28;20477;-61
2021/06/11 11:11:28;;;;;;;5.47;3.63;;;;;;;;;;5032335;28;20029;-60
2021/06/11 11:13:54;;;;;;;5.22;3.90;;;;;;;;;;5051060;28;20061;-61
2021/06/11 11:16:27;;;;;;;4.90;3.42;;;;;;;;;;5033282;28;20038;-61
2021/06/11 11:18:52;;;;;;;4.28;3.15;;;;;;;;;;5027653;28;20060;-60
2021/06/11 11:21:34;;;;;;;4.82;3.22;;;;;;;;;;5046969;28;21111;-61
2021/06/11 11:24:02;;;;;;;6.32;3.78;;;;;;;;;;5002159;28;20041;-60
2021/06/11 11:26:44;;;;;;;5.00;3.55;;;;;;;;;;5051517;28;20060;-61
2021/06/11 11:29:10;;;;;;;5.15;3.30;;;;;;;;;;5040478;28;20029;-61
2021/06/11 11:31:36;;;;;;;4.25;3.05;;;;;;;;;;5050407;28;20752;-60
2021/06/11 11:34:01;;;;;;;4.30;2.90;;;;;;;;;;5041385;28;20494;-60
2021/06/11 11:36:27;;;;;;;3.78;3.00;;;;;;;;;;5037157;28;20037;-60
2021/06/11 11:38:52;;;;;;;4.22;3.13;;;;;;;;;;5033335;28;20029;-61
2021/06/11 11:41:21;;;;;;;3.78;2.70;;;;;;;;;;5030098;28;20564;-61
2021/06/11 11:43:46;;;;;;;4.38;3.10;;;;;;;;;;5042845;28;20037;-61
2021/06/11 11:46:12;;;;;;;3.60;2.60;;;;;;;;;;5033723;28;20045;-61
2021/06/11 11:48:37;;;;;;;3.97;3.20;;;;;;;;;;5047030;28;20025;-60
2021/06/11 11:51:03;;;;;;;4.88;3.20;;;;;;;;;;5048626;28;20847;-61
2021/06/11 11:53:29;;;;;;;4.68;3.03;;;;;;;;;;5049625;28;20080;-61
2021/06/11 11:55:54;;;;;;;4.45;3.13;;;;;;;;;;5034613;28;20030;-61
2021/06/11 11:58:23;;;;;;;6.43;3.42;;;;;;;;;;5030923;28;20776;-60
2021/06/11 12:00:48;;;;;;;5.03;3.10;;;;;;;;;;5048418;28;20179;-60
2021/06/11 12:03:14;;;;;;;6.03;3.25;;;;;;;;;;5050162;28;20080;-61
2021/06/11 12:05:39;;;;;;;4.40;2.95;;;;;;;;;;5050691;28;20037;-60
2021/06/11 12:08:05;;;;;;;5.00;3.03;;;;;;;;;;5030443;28;20039;-60
2021/06/11 12:10:31;;;;;;;5.15;3.15;;;;;;;;;;5048995;28;20507;-60
2021/06/11 12:12:56;;;;;;;5.53;3.10;;;;;;;;;;5049632;28;20044;-60
2021/06/11 12:15:22;;;;;;;5.05;2.90;;;;;;;;;;5049458;28;20033;-60
2021/06/11 12:17:47;;;;;;;3.78;3.00;;;;;;;;;;5048168;28;20033;-60
2021/06/11 12:20:13;;;;;;;5.03;3.20;;;;;;;;;;5033305;28;20112;-60
2021/06/11 12:22:39;;;;;;;4.22;2.80;;;;;;;;;;5049312;28;20333;-61
2021/06/11 12:25:05;;;;;;;4.57;3.53;;;;;;;;;;5048596;28;20477;-60
2021/06/11 12:27:30;;;;;;;3.60;2.83;;;;;;;;;;5031141;28;20112;-60
2021/06/11 12:29:56;;;;;;;4.30;2.83;;;;;;;;;;5049115;28;20041;-61
2021/06/11 12:32:21;;;;;;;3.42;2.65;;;;;;;;;;5050262;28;20203;-61
2021/06/11 12:34:46;;;;;;;4.05;2.42;;;;;;;;;;5031650;28;20044;-61
2021/06/11 12:37:12;;;;;;;4.00;2.50;;;;;;;;;;5049752;28;20033;-60
2021/06/11 12:39:38;;;;;;;3.00;2.35;;;;;;;;;;5068621;28;20234;-59
2021/06/11 12:42:13;;;;;;;3.13;2.38;;;;;;;;;;5037739;28;20033;-60
2021/06/11 12:44:39;;;;;;;3.53;2.22;;;;;;;;;;5037608;28;20108;-60
2021/06/11 12:47:04;;;;;;;3.03;2.30;;;;;;;;;;5053952;28;20112;-60
2021/06/11 12:49:30;;;;;;;3.20;2.35;;;;;;;;;;5052773;28;20029;-60
2021/06/11 12:51:57;;;;;;;4.30;2.53;;;;;;;;;;5052457;28;20714;-60
2021/06/11 12:54:23;;;;;;;3.60;2.53;;;;;;;;;;5019961;28;20033;-60
2021/06/11 12:56:48;;;;;;;2.80;2.17;;;;;;;;;;5052517;28;20029;-60
2021/06/11 12:59:14;;;;;;;3.75;2.60;;;;;;;;;;5053057;28;20039;-60
2021/06/11 13:01:39;;;;;;;4.30;2.38;;;;;;;;;;5053144;28;20551;-60
2021/06/11 13:04:05;;;;;;;2.78;2.20;;;;;;;;;;5033252;28;20036;-60
2021/06/11 13:06:33;;;;;;;2.50;1.90;;;;;;;;;;5045192;28;20041;-60
2021/06/11 13:08:59;;;;;;;3.08;1.85;;;;;;;;;;5035103;28;20421;-60
2021/06/11 13:11:24;;;;;;;2.53;1.92;;;;;;;;;;5036326;28;20029;-60
2021/06/11 13:13:50;;;;;;;3.03;2.20;;;;;;;;;;5051881;28;20033;-60
2021/06/11 13:16:15;;;;;;;2.88;2.30;;;;;;;;;;5067078;28;20039;-60
2021/06/11 13:18:41;;;;;;;2.45;2.10;;;;;;;;;;5034657;28;20044;-60
2021/06/11 13:21:06;;;;;;;2.70;2.10;;;;;;;;;;5052042;28;20084;-60
2021/06/11 13:23:32;;;;;;;2.95;1.98;;;;;;;;;;5054099;28;20496;-60
2021/06/11 13:25:58;;;;;;;2.05;1.80;;;;;;;;;;5042174;28;20029;-60
2021/06/11 13:28:23;;;;;;;2.35;2.00;;;;;;;;;;5043444;28;20057;-60
2021/06/11 13:30:49;;;;;;;2.08;1.80;;;;;;;;;;5051160;28;20037;-60
2021/06/11 13:33:14;;;;;;;2.58;1.88;;;;;;;;;;5052666;28;20060;-60
2021/06/11 13:35:40;;;;;;;2.63;2.03;;;;;;;;;;5036429;28;20086;-60
2021/06/11 13:38:06;;;;;;;2.00;1.70;;;;;;;;;;5026711;28;20140;-60
2021/06/11 13:40:32;;;;;;;2.22;1.70;;;;;;;;;;5053415;28;20041;-60
2021/06/11 13:42:57;;;;;;;3.03;2.00;;;;;;;;;;5020979;28;20038;-60
2021/06/11 13:45:23;;;;;;;3.03;2.00;;;;;;;;;;5035101;28;20033;-60
2021/06/11 13:47:48;;;;;;;1.95;1.70;;;;;;;;;;5052936;28;20540;-60
2021/06/11 13:50:16;;;;;;;3.05;1.70;;;;;;;;;;5051537;28;20041;-60
2021/06/11 13:52:41;;;;;;;2.75;1.77;;;;;;;;;;5033378;28;20042;-60
2021/06/11 13:55:07;;;;;;;1.98;1.70;;;;;;;;;;5033920;28;20033;-60
2021/06/11 13:57:33;;;;;;;2.53;1.83;;;;;;;;;;5052829;28;20034;-60
2021/06/11 13:59:59;;;;;;;2.15;1.70;;;;;;;;;;5034860;28;20044;-60
2021/06/11 14:02:25;;;;;;;1.83;1.45;;;;;;;;;;5049255;28;20040;-60
2021/06/11 14:04:50;;;;;;;1.75;1.40;;;;;;;;;;5051680;28;20039;-60
2021/06/11 14:07:16;;;;;;;2.22;1.52;;;;;;;;;;5051289;28;20538;-60
2021/06/11 14:09:42;;;;;;;1.83;1.50;;;;;;;;;;5053561;28;20043;-60
2021/06/11 14:12:07;;;;;;;2.33;1.40;;;;;;;;;;5052099;28;20033;-60
2021/06/11 14:14:33;;;;;;;2.58;1.80;;;;;;;;;;5050288;28;20029;-60
2021/06/11 14:16:58;;;;;;;2.78;1.75;;;;;;;;;;5052331;28;20034;-60
2021/06/11 14:19:25;;;;;;;1.70;1.60;;;;;;;;;;5034425;28;20046;-60
2021/06/11 14:21:51;;;;;;;2.38;1.95;;;;;;;;;;5052263;28;20041;-60
2021/06/11 14:24:17;;;;;;;2.42;1.80;;;;;;;;;;5016684;28;20068;-60
2021/06/11 14:26:42;;;;;;;2.53;2.33;;;;;;;;;;5049582;28;20041;-60
2021/06/11 14:29:08;;;;;;;2.60;2.08;;;;;;;;;;5051260;28;20033;-60
2021/06/11 14:31:33;;;;;;;2.22;1.98;;;;;;;;;;5038577;28;20071;-60
2021/06/11 14:33:59;;;;;;;2.00;1.80;;;;;;;;;;5052749;28;20044;-60
2021/06/11 14:36:24;;;;;;;4.15;2.20;;;;;;;;;;5036603;28;20452;-60
2021/06/11 14:38:49;;;;;;;1.95;1.75;;;;;;;;;;5050663;28;20037;-60
2021/06/11 14:41:15;;;;;;;2.90;1.77;;;;;;;;;;5052366;28;20434;-60
2021/06/11 14:43:40;;;;;;;2.35;1.98;;;;;;;;;;5052819;28;20040;-60